sensor_id;sensor_type;location;lat;lon;timestamp;P1;durP1;ratioP1;P2;durP2;ratioP2
32786;SDS011;19139;49.372;8.580;2024-01-11T00:01:45;9.00;;;5.77;;
32786;SDS011;19139;49.372;8.580;2024-01-11T00:04:12;6.63;;;5.93;;
32786;SDS011;19139;49.372;8.580;2024-01-11T00:06:40;6.47;;;5.53;;
32786;SDS011;19139;49.372;8.580;2024-01-11T00:09:08;6.47;;;5.63;;
32786;SDS011;19139;49.372;8.580;2024-01-11T00:11:35;7.13;;;4.83;;
32786;SDS011;19139;49.372;8.580;2024-01-11T00:14:01;6.13;;;5.53;;
32786;SDS011;19139;49.372;8.580;2024-01-11T00:16:28;5.60;;;4.83;;
32786;SDS011;19139;49.372;8.580;2024-01-11T00:18:55;6.73;;;5.30;;
32786;SDS011;19139;49.372;8.580;2024-01-11T00:21:21;6.03;;;5.37;;
32786;SDS011;19139;49.372;8.580;2024-01-11T00:23:49;6.20;;;5.23;;
32786;SDS011;19139;49.372;8.580;2024-01-11T00:26:15;6.90;;;5.57;;
32786;SDS011;19139;49.372;8.580;2024-01-11T00:28:42;6.63;;;5.43;;
32786;SDS011;19139;49.372;8.580;2024-01-11T00:31:09;6.03;;;5.03;;
32786;SDS011;19139;49.372;8.580;2024-01-11T00:33:36;6.40;;;5.53;;
32786;SDS011;19139;49.372;8.580;2024-01-11T00:36:03;6.43;;;5.37;;
32786;SDS011;19139;49.372;8.580;2024-01-11T00:38:30;7.40;;;5.73;;
32786;SDS011;19139;49.372;8.580;2024-01-11T00:40:57;7.27;;;5.93;;
32786;SDS011;19139;49.372;8.580;2024-01-11T00:43:23;7.03;;;5.73;;
32786;SDS011;19139;49.372;8.580;2024-01-11T00:45:50;6.87;;;5.73;;
32786;SDS011;19139;49.372;8.580;2024-01-11T00:48:16;8.60;;;6.00;;
32786;SDS011;19139;49.372;8.580;2024-01-11T00:50:43;5.63;;;5.13;;
32786;SDS011;19139;49.372;8.580;2024-01-11T00:53:11;8.13;;;5.63;;
32786;SDS011;19139;49.372;8.580;2024-01-11T00:55:40;6.13;;;4.97;;
32786;SDS011;19139;49.372;8.580;2024-01-11T00:58:07;6.23;;;5.57;;
32786;SDS011;19139;49.372;8.580;2024-01-11T01:00:33;6.10;;;5.50;;
32786;SDS011;19139;49.372;8.580;2024-01-11T01:03:00;6.10;;;5.50;;
32786;SDS011;19139;49.372;8.580;2024-01-11T01:05:27;7.23;;;6.47;;
32786;SDS011;19139;49.372;8.580;2024-01-11T01:07:54;7.10;;;5.80;;
32786;SDS011;19139;49.372;8.580;2024-01-11T01:10:20;6.93;;;6.23;;
32786;SDS011;19139;49.372;8.580;2024-01-11T01:12:47;6.07;;;5.47;;
32786;SDS011;19139;49.372;8.580;2024-01-11T01:15:14;7.13;;;5.83;;
32786;SDS011;19139;49.372;8.580;2024-01-11T01:17:41;6.93;;;5.90;;
32786;SDS011;19139;49.372;8.580;2024-01-11T01:20:08;7.40;;;5.87;;
32786;SDS011;19139;49.372;8.580;2024-01-11T01:22:35;7.17;;;5.50;;
32786;SDS011;19139;49.372;8.580;2024-01-11T01:25:02;6.60;;;5.90;;
32786;SDS011;19139;49.372;8.580;2024-01-11T01:27:29;6.03;;;5.43;;
32786;SDS011;19139;49.372;8.580;2024-01-11T01:29:55;6.97;;;5.60;;
32786;SDS011;19139;49.372;8.580;2024-01-11T01:32:22;7.10;;;5.77;;
32786;SDS011;19139;49.372;8.580;2024-01-11T01:34:49;7.30;;;5.70;;
32786;SDS011;19139;49.372;8.580;2024-01-11T01:37:16;7.27;;;5.77;;
32786;SDS011;19139;49.372;8.580;2024-01-11T01:39:42;7.07;;;5.63;;
32786;SDS011;19139;49.372;8.580;2024-01-11T01:42:09;6.87;;;5.70;;
32786;SDS011;19139;49.372;8.580;2024-01-11T01:44:35;6.67;;;5.47;;
32786;SDS011;19139;49.372;8.580;2024-01-11T01:47:03;6.33;;;5.70;;
32786;SDS011;19139;49.372;8.580;2024-01-11T01:49:31;6.10;;;5.50;;
32786;SDS011;19139;49.372;8.580;2024-01-11T01:51:58;6.77;;;5.87;;
32786;SDS011;19139;49.372;8.580;2024-01-11T01:54:24;5.80;;;5.30;;
32786;SDS011;19139;49.372;8.580;2024-01-11T01:56:52;6.23;;;5.47;;
32786;SDS011;19139;49.372;8.580;2024-01-11T01:59:20;6.27;;;5.50;;
32786;SDS011;19139;49.372;8.580;2024-01-11T02:01:47;6.77;;;5.53;;
32786;SDS011;19139;49.372;8.580;2024-01-11T02:04:14;6.60;;;5.83;;
32786;SDS011;19139;49.372;8.580;2024-01-11T02:06:41;7.10;;;5.50;;
32786;SDS011;19139;49.372;8.580;2024-01-11T02:09:13;8.00;;;6.97;;
32786;SDS011;19139;49.372;8.580;2024-01-11T02:11:41;6.13;;;5.57;;
32786;SDS011;19139;49.372;8.580;2024-01-11T02:14:08;6.70;;;6.07;;
32786;SDS011;19139;49.372;8.580;2024-01-11T02:16:36;6.80;;;6.10;;
32786;SDS011;19139;49.372;8.580;2024-01-11T02:19:06;6.77;;;5.57;;
32786;SDS011;19139;49.372;8.580;2024-01-11T02:21:37;6.73;;;6.00;;
32786;SDS011;19139;49.372;8.580;2024-01-11T02:24:04;5.90;;;5.30;;
32786;SDS011;19139;49.372;8.580;2024-01-11T02:26:32;6.80;;;5.67;;
32786;SDS011;19139;49.372;8.580;2024-01-11T02:29:00;6.57;;;5.53;;
32786;SDS011;19139;49.372;8.580;2024-01-11T02:31:27;6.77;;;5.00;;
32786;SDS011;19139;49.372;8.580;2024-01-11T02:33:54;6.47;;;5.77;;
32786;SDS011;19139;49.372;8.580;2024-01-11T02:36:22;6.47;;;5.83;;
32786;SDS011;19139;49.372;8.580;2024-01-11T02:38:51;7.13;;;5.90;;
32786;SDS011;19139;49.372;8.580;2024-01-11T02:41:18;6.87;;;5.43;;
32786;SDS011;19139;49.372;8.580;2024-01-11T02:43:48;6.47;;;5.17;;
32786;SDS011;19139;49.372;8.580;2024-01-11T02:46:15;6.10;;;5.50;;
32786;SDS011;19139;49.372;8.580;2024-01-11T02:48:43;6.70;;;6.00;;
32786;SDS011;19139;49.372;8.580;2024-01-11T02:51:10;6.97;;;5.90;;
32786;SDS011;19139;49.372;8.580;2024-01-11T02:53:36;6.60;;;5.93;;
32786;SDS011;19139;49.372;8.580;2024-01-11T02:56:03;6.60;;;5.83;;
32786;SDS011;19139;49.372;8.580;2024-01-11T02:58:30;6.73;;;5.47;;
32786;SDS011;19139;49.372;8.580;2024-01-11T03:00:57;7.73;;;6.70;;
32786;SDS011;19139;49.372;8.580;2024-01-11T03:03:24;5.97;;;5.30;;
32786;SDS011;19139;49.372;8.580;2024-01-11T03:05:50;6.40;;;5.77;;
32786;SDS011;19139;49.372;8.580;2024-01-11T03:08:17;6.50;;;5.73;;
32786;SDS011;19139;49.372;8.580;2024-01-11T03:10:44;6.13;;;5.33;;
32786;SDS011;19139;49.372;8.580;2024-01-11T03:13:10;6.17;;;5.53;;
32786;SDS011;19139;49.372;8.580;2024-01-11T03:15:39;7.40;;;6.03;;
32786;SDS011;19139;49.372;8.580;2024-01-11T03:18:05;6.70;;;6.00;;
32786;SDS011;19139;49.372;8.580;2024-01-11T03:20:32;6.10;;;5.23;;
32786;SDS011;19139;49.372;8.580;2024-01-11T03:22:59;7.00;;;5.97;;
32786;SDS011;19139;49.372;8.580;2024-01-11T03:25:26;6.90;;;6.20;;
32786;SDS011;19139;49.372;8.580;2024-01-11T03:27:52;7.13;;;6.17;;
32786;SDS011;19139;49.372;8.580;2024-01-11T03:30:19;6.77;;;5.63;;
32786;SDS011;19139;49.372;8.580;2024-01-11T03:32:46;6.80;;;5.90;;
32786;SDS011;19139;49.372;8.580;2024-01-11T03:35:13;7.37;;;6.20;;
32786;SDS011;19139;49.372;8.580;2024-01-11T03:37:39;6.83;;;5.73;;
32786;SDS011;19139;49.372;8.580;2024-01-11T03:40:06;6.63;;;5.57;;
32786;SDS011;19139;49.372;8.580;2024-01-11T03:42:33;5.93;;;5.33;;
32786;SDS011;19139;49.372;8.580;2024-01-11T03:45:00;6.77;;;5.80;;
32786;SDS011;19139;49.372;8.580;2024-01-11T03:47:26;6.70;;;5.97;;
32786;SDS011;19139;49.372;8.580;2024-01-11T03:49:53;7.83;;;5.93;;
32786;SDS011;19139;49.372;8.580;2024-01-11T03:52:20;6.83;;;5.90;;
32786;SDS011;19139;49.372;8.580;2024-01-11T03:54:47;6.70;;;5.93;;
32786;SDS011;19139;49.372;8.580;2024-01-11T03:57:13;7.80;;;7.03;;
32786;SDS011;19139;49.372;8.580;2024-01-11T03:59:40;6.87;;;6.13;;
32786;SDS011;19139;49.372;8.580;2024-01-11T04:02:07;7.17;;;6.07;;
32786;SDS011;19139;49.372;8.580;2024-01-11T04:04:34;6.80;;;6.07;;
32786;SDS011;19139;49.372;8.580;2024-01-11T04:07:00;6.87;;;6.17;;
32786;SDS011;19139;49.372;8.580;2024-01-11T04:09:27;7.77;;;5.93;;
32786;SDS011;19139;49.372;8.580;2024-01-11T04:11:54;6.60;;;5.87;;
32786;SDS011;19139;49.372;8.580;2024-01-11T04:14:20;6.10;;;5.47;;
32786;SDS011;19139;49.372;8.580;2024-01-11T04:16:47;7.33;;;5.67;;
32786;SDS011;19139;49.372;8.580;2024-01-11T04:19:14;6.60;;;5.47;;
32786;SDS011;19139;49.372;8.580;2024-01-11T04:21:43;6.13;;;5.53;;
32786;SDS011;19139;49.372;8.580;2024-01-11T04:24:09;6.33;;;5.50;;
32786;SDS011;19139;49.372;8.580;2024-01-11T04:26:36;7.47;;;6.30;;
32786;SDS011;19139;49.372;8.580;2024-01-11T04:29:03;6.97;;;6.00;;
32786;SDS011;19139;49.372;8.580;2024-01-11T04:31:30;7.23;;;6.53;;
32786;SDS011;19139;49.372;8.580;2024-01-11T04:33:56;7.83;;;6.10;;
32786;SDS011;19139;49.372;8.580;2024-01-11T04:36:23;7.17;;;5.77;;
32786;SDS011;19139;49.372;8.580;2024-01-11T04:38:50;6.40;;;5.73;;
32786;SDS011;19139;49.372;8.580;2024-01-11T04:41:16;6.70;;;5.97;;
32786;SDS011;19139;49.372;8.580;2024-01-11T04:43:44;6.07;;;5.53;;
32786;SDS011;19139;49.372;8.580;2024-01-11T04:46:17;7.20;;;6.00;;
32786;SDS011;19139;49.372;8.580;2024-01-11T04:48:48;7.37;;;6.20;;
32786;SDS011;19139;49.372;8.580;2024-01-11T04:51:16;6.53;;;5.93;;
32786;SDS011;19139;49.372;8.580;2024-01-11T04:53:44;7.13;;;6.13;;
32786;SDS011;19139;49.372;8.580;2024-01-11T04:56:13;6.90;;;6.03;;
32786;SDS011;19139;49.372;8.580;2024-01-11T04:58:41;6.57;;;5.27;;
32786;SDS011;19139;49.372;8.580;2024-01-11T05:01:12;7.03;;;5.63;;
32786;SDS011;19139;49.372;8.580;2024-01-11T05:03:43;6.13;;;5.53;;
32786;SDS011;19139;49.372;8.580;2024-01-11T05:06:17;6.13;;;5.50;;
32786;SDS011;19139;49.372;8.580;2024-01-11T05:08:54;6.37;;;5.20;;
32786;SDS011;19139;49.372;8.580;2024-01-11T05:11:21;6.30;;;5.57;;
32786;SDS011;19139;49.372;8.580;2024-01-11T05:13:51;5.70;;;5.13;;
32786;SDS011;19139;49.372;8.580;2024-01-11T05:16:21;6.20;;;5.60;;
32786;SDS011;19139;49.372;8.580;2024-01-11T05:18:53;7.17;;;6.30;;
32786;SDS011;19139;49.372;8.580;2024-01-11T05:21:21;7.00;;;6.30;;
32786;SDS011;19139;49.372;8.580;2024-01-11T05:23:48;6.57;;;5.97;;
32786;SDS011;19139;49.372;8.580;2024-01-11T05:26:15;9.00;;;5.57;;
32786;SDS011;19139;49.372;8.580;2024-01-11T05:28:43;7.47;;;6.77;;
32786;SDS011;19139;49.372;8.580;2024-01-11T05:31:10;5.90;;;5.30;;
32786;SDS011;19139;49.372;8.580;2024-01-11T05:33:38;6.50;;;5.50;;
32786;SDS011;19139;49.372;8.580;2024-01-11T05:36:05;6.17;;;5.57;;
32786;SDS011;19139;49.372;8.580;2024-01-11T05:38:32;6.50;;;5.37;;
32786;SDS011;19139;49.372;8.580;2024-01-11T05:41:00;6.47;;;5.80;;
32786;SDS011;19139;49.372;8.580;2024-01-11T05:43:27;7.03;;;5.93;;
32786;SDS011;19139;49.372;8.580;2024-01-11T05:45:54;6.53;;;5.87;;
32786;SDS011;19139;49.372;8.580;2024-01-11T05:48:20;6.73;;;5.83;;
32786;SDS011;19139;49.372;8.580;2024-01-11T05:50:47;6.40;;;5.80;;
32786;SDS011;19139;49.372;8.580;2024-01-11T05:53:14;7.17;;;5.87;;
32786;SDS011;19139;49.372;8.580;2024-01-11T05:55:41;6.10;;;5.53;;
32786;SDS011;19139;49.372;8.580;2024-01-11T05:58:07;6.40;;;5.70;;
32786;SDS011;19139;49.372;8.580;2024-01-11T06:00:34;7.27;;;6.07;;
32786;SDS011;19139;49.372;8.580;2024-01-11T06:03:01;6.47;;;5.77;;
32786;SDS011;19139;49.372;8.580;2024-01-11T06:05:27;6.80;;;6.20;;
32786;SDS011;19139;49.372;8.580;2024-01-11T06:07:54;7.37;;;6.17;;
32786;SDS011;19139;49.372;8.580;2024-01-11T06:10:21;6.50;;;5.87;;
32786;SDS011;19139;49.372;8.580;2024-01-11T06:12:47;7.30;;;6.60;;
32786;SDS011;19139;49.372;8.580;2024-01-11T06:15:14;5.97;;;5.37;;
32786;SDS011;19139;49.372;8.580;2024-01-11T06:17:41;6.93;;;6.23;;
32786;SDS011;19139;49.372;8.580;2024-01-11T06:20:08;6.17;;;5.30;;
32786;SDS011;19139;49.372;8.580;2024-01-11T06:22:36;7.60;;;5.80;;
32786;SDS011;19139;49.372;8.580;2024-01-11T06:25:03;7.67;;;6.33;;
32786;SDS011;19139;49.372;8.580;2024-01-11T06:27:30;6.67;;;5.93;;
32786;SDS011;19139;49.372;8.580;2024-01-11T06:29:57;9.30;;;6.10;;
32786;SDS011;19139;49.372;8.580;2024-01-11T06:32:24;6.60;;;5.90;;
32786;SDS011;19139;49.372;8.580;2024-01-11T06:34:51;8.07;;;6.63;;
32786;SDS011;19139;49.372;8.580;2024-01-11T06:37:18;8.73;;;7.03;;
32786;SDS011;19139;49.372;8.580;2024-01-11T06:39:45;8.40;;;6.80;;
32786;SDS011;19139;49.372;8.580;2024-01-11T06:42:11;6.73;;;5.90;;
32786;SDS011;19139;49.372;8.580;2024-01-11T06:44:38;9.37;;;6.63;;
32786;SDS011;19139;49.372;8.580;2024-01-11T06:47:05;10.53;;;7.33;;
32786;SDS011;19139;49.372;8.580;2024-01-11T06:49:32;8.00;;;6.50;;
32786;SDS011;19139;49.372;8.580;2024-01-11T06:51:59;7.33;;;6.50;;
32786;SDS011;19139;49.372;8.580;2024-01-11T06:54:26;7.27;;;6.30;;
32786;SDS011;19139;49.372;8.580;2024-01-11T06:56:53;7.53;;;6.73;;
32786;SDS011;19139;49.372;8.580;2024-01-11T06:59:19;9.07;;;6.33;;
32786;SDS011;19139;49.372;8.580;2024-01-11T07:01:48;8.43;;;6.37;;
32786;SDS011;19139;49.372;8.580;2024-01-11T07:04:15;8.90;;;7.07;;
32786;SDS011;19139;49.372;8.580;2024-01-11T07:06:42;11.17;;;7.00;;
32786;SDS011;19139;49.372;8.580;2024-01-11T07:09:08;10.20;;;7.10;;
32786;SDS011;19139;49.372;8.580;2024-01-11T07:11:37;7.07;;;6.33;;
32786;SDS011;19139;49.372;8.580;2024-01-11T07:14:03;8.27;;;6.57;;
32786;SDS011;19139;49.372;8.580;2024-01-11T07:16:30;9.00;;;7.03;;
32786;SDS011;19139;49.372;8.580;2024-01-11T07:18:57;8.80;;;6.50;;
32786;SDS011;19139;49.372;8.580;2024-01-11T07:21:24;8.63;;;6.57;;
32786;SDS011;19139;49.372;8.580;2024-01-11T07:23:58;10.10;;;6.50;;
32786;SDS011;19139;49.372;8.580;2024-01-11T07:26:25;8.83;;;6.63;;
32786;SDS011;19139;49.372;8.580;2024-01-11T07:28:52;8.27;;;6.27;;
32786;SDS011;19139;49.372;8.580;2024-01-11T07:31:22;8.47;;;7.20;;
32786;SDS011;19139;49.372;8.580;2024-01-11T07:33:49;10.83;;;7.33;;
32786;SDS011;19139;49.372;8.580;2024-01-11T07:36:16;8.30;;;7.00;;
32786;SDS011;19139;49.372;8.580;2024-01-11T07:38:43;7.40;;;6.00;;
32786;SDS011;19139;49.372;8.580;2024-01-11T07:41:10;9.67;;;7.10;;
32786;SDS011;19139;49.372;8.580;2024-01-11T07:43:37;8.03;;;6.90;;
32786;SDS011;19139;49.372;8.580;2024-01-11T07:46:19;10.20;;;7.00;;
32786;SDS011;19139;49.372;8.580;2024-01-11T07:48:58;9.63;;;7.10;;
32786;SDS011;19139;49.372;8.580;2024-01-11T07:51:25;7.83;;;7.03;;
32786;SDS011;19139;49.372;8.580;2024-01-11T07:53:53;8.37;;;7.20;;
32786;SDS011;19139;49.372;8.580;2024-01-11T07:56:19;9.00;;;6.80;;
32786;SDS011;19139;49.372;8.580;2024-01-11T07:58:46;8.73;;;6.97;;
32786;SDS011;19139;49.372;8.580;2024-01-11T08:01:15;7.80;;;6.60;;
32786;SDS011;19139;49.372;8.580;2024-01-11T08:03:42;8.87;;;7.07;;
32786;SDS011;19139;49.372;8.580;2024-01-11T08:06:11;10.47;;;7.20;;
32786;SDS011;19139;49.372;8.580;2024-01-11T08:08:38;9.13;;;7.27;;
32786;SDS011;19139;49.372;8.580;2024-01-11T08:11:09;8.30;;;6.77;;
32786;SDS011;19139;49.372;8.580;2024-01-11T08:13:39;10.70;;;7.27;;
32786;SDS011;19139;49.372;8.580;2024-01-11T08:16:06;8.33;;;6.47;;
32786;SDS011;19139;49.372;8.580;2024-01-11T08:18:35;8.20;;;6.00;;
32786;SDS011;19139;49.372;8.580;2024-01-11T08:21:02;7.53;;;6.73;;
32786;SDS011;19139;49.372;8.580;2024-01-11T08:23:32;10.17;;;8.37;;
32786;SDS011;19139;49.372;8.580;2024-01-11T08:25:59;8.07;;;6.90;;
32786;SDS011;19139;49.372;8.580;2024-01-11T08:28:26;7.20;;;6.47;;
32786;SDS011;19139;49.372;8.580;2024-01-11T08:30:52;9.00;;;6.87;;
32786;SDS011;19139;49.372;8.580;2024-01-11T08:33:19;8.90;;;6.63;;
32786;SDS011;19139;49.372;8.580;2024-01-11T08:35:46;7.53;;;6.60;;
32786;SDS011;19139;49.372;8.580;2024-01-11T08:38:13;8.63;;;7.40;;
32786;SDS011;19139;49.372;8.580;2024-01-11T08:40:40;8.93;;;7.37;;
32786;SDS011;19139;49.372;8.580;2024-01-11T08:43:06;9.30;;;6.43;;
32786;SDS011;19139;49.372;8.580;2024-01-11T08:45:33;9.27;;;6.87;;
32786;SDS011;19139;49.372;8.580;2024-01-11T08:48:00;8.07;;;6.93;;
32786;SDS011;19139;49.372;8.580;2024-01-11T08:50:27;9.47;;;6.77;;
32786;SDS011;19139;49.372;8.580;2024-01-11T08:52:54;8.63;;;6.80;;
32786;SDS011;19139;49.372;8.580;2024-01-11T08:55:22;8.50;;;7.27;;
32786;SDS011;19139;49.372;8.580;2024-01-11T08:57:49;7.47;;;6.40;;
32786;SDS011;19139;49.372;8.580;2024-01-11T09:00:15;8.90;;;7.23;;
32786;SDS011;19139;49.372;8.580;2024-01-11T09:02:45;8.60;;;7.17;;
32786;SDS011;19139;49.372;8.580;2024-01-11T09:05:15;8.70;;;7.47;;
32786;SDS011;19139;49.372;8.580;2024-01-11T09:07:42;9.33;;;7.13;;
32786;SDS011;19139;49.372;8.580;2024-01-11T09:10:09;7.83;;;6.83;;
32786;SDS011;19139;49.372;8.580;2024-01-11T09:12:37;9.73;;;7.37;;
32786;SDS011;19139;49.372;8.580;2024-01-11T09:15:05;9.30;;;6.53;;
32786;SDS011;19139;49.372;8.580;2024-01-11T09:17:32;9.97;;;6.80;;
32786;SDS011;19139;49.372;8.580;2024-01-11T09:19:59;8.07;;;6.90;;
32786;SDS011;19139;49.372;8.580;2024-01-11T09:22:26;8.83;;;7.60;;
32786;SDS011;19139;49.372;8.580;2024-01-11T09:24:53;8.00;;;7.20;;
32786;SDS011;19139;49.372;8.580;2024-01-11T09:27:20;7.20;;;5.73;;
32786;SDS011;19139;49.372;8.580;2024-01-11T09:29:47;7.87;;;6.77;;
32786;SDS011;19139;49.372;8.580;2024-01-11T09:32:18;7.57;;;6.87;;
32786;SDS011;19139;49.372;8.580;2024-01-11T09:34:44;9.43;;;6.83;;
32786;SDS011;19139;49.372;8.580;2024-01-11T09:37:12;8.27;;;7.03;;
32786;SDS011;19139;49.372;8.580;2024-01-11T09:39:38;9.30;;;6.70;;
32786;SDS011;19139;49.372;8.580;2024-01-11T09:42:08;7.77;;;6.97;;
32786;SDS011;19139;49.372;8.580;2024-01-11T09:44:36;9.47;;;7.90;;
32786;SDS011;19139;49.372;8.580;2024-01-11T09:47:08;8.90;;;7.27;;
32786;SDS011;19139;49.372;8.580;2024-01-11T09:49:42;8.30;;;7.10;;
32786;SDS011;19139;49.372;8.580;2024-01-11T09:52:11;7.77;;;6.80;;
32786;SDS011;19139;49.372;8.580;2024-01-11T09:54:40;8.23;;;6.83;;
32786;SDS011;19139;49.372;8.580;2024-01-11T09:57:07;7.87;;;6.47;;
32786;SDS011;19139;49.372;8.580;2024-01-11T09:59:35;9.97;;;6.63;;
32786;SDS011;19139;49.372;8.580;2024-01-11T10:02:03;7.57;;;6.40;;
32786;SDS011;19139;49.372;8.580;2024-01-11T10:04:34;8.37;;;7.23;;
32786;SDS011;19139;49.372;8.580;2024-01-11T10:07:01;9.50;;;7.20;;
32786;SDS011;19139;49.372;8.580;2024-01-11T10:09:31;10.47;;;8.53;;
32786;SDS011;19139;49.372;8.580;2024-01-11T10:11:58;8.03;;;7.23;;
32786;SDS011;19139;49.372;8.580;2024-01-11T10:14:25;7.37;;;6.53;;
32786;SDS011;19139;49.372;8.580;2024-01-11T10:16:53;9.80;;;7.33;;
32786;SDS011;19139;49.372;8.580;2024-01-11T10:19:21;10.13;;;7.90;;
32786;SDS011;19139;49.372;8.580;2024-01-11T10:21:48;10.33;;;7.70;;
32786;SDS011;19139;49.372;8.580;2024-01-11T10:24:19;8.67;;;7.33;;
32786;SDS011;19139;49.372;8.580;2024-01-11T10:26:55;10.10;;;7.50;;
32786;SDS011;19139;49.372;8.580;2024-01-11T10:29:27;8.43;;;7.63;;
32786;SDS011;19139;49.372;8.580;2024-01-11T10:31:56;8.70;;;7.30;;
32786;SDS011;19139;49.372;8.580;2024-01-11T10:34:24;7.43;;;6.70;;
32786;SDS011;19139;49.372;8.580;2024-01-11T10:36:51;10.17;;;8.30;;
32786;SDS011;19139;49.372;8.580;2024-01-11T10:39:19;9.03;;;7.37;;
32786;SDS011;19139;49.372;8.580;2024-01-11T10:42:04;9.90;;;7.43;;
32786;SDS011;19139;49.372;8.580;2024-01-11T10:44:33;9.90;;;7.93;;
32786;SDS011;19139;49.372;8.580;2024-01-11T10:47:02;9.53;;;7.50;;
32786;SDS011;19139;49.372;8.580;2024-01-11T10:49:31;8.63;;;7.73;;
32786;SDS011;19139;49.372;8.580;2024-01-11T10:52:00;8.87;;;7.80;;
32786;SDS011;19139;49.372;8.580;2024-01-11T10:54:29;10.07;;;7.70;;
32786;SDS011;19139;49.372;8.580;2024-01-11T10:56:58;8.70;;;7.80;;
32786;SDS011;19139;49.372;8.580;2024-01-11T10:59:26;8.20;;;7.17;;
32786;SDS011;19139;49.372;8.580;2024-01-11T11:01:53;8.60;;;6.97;;
32786;SDS011;19139;49.372;8.580;2024-01-11T11:04:22;8.83;;;7.93;;
32786;SDS011;19139;49.372;8.580;2024-01-11T11:06:56;8.57;;;7.67;;
32786;SDS011;19139;49.372;8.580;2024-01-11T11:09:24;8.83;;;7.47;;
32786;SDS011;19139;49.372;8.580;2024-01-11T11:11:53;8.00;;;7.20;;
32786;SDS011;19139;49.372;8.580;2024-01-11T11:14:22;8.70;;;7.60;;
32786;SDS011;19139;49.372;8.580;2024-01-11T11:16:50;8.17;;;7.17;;
32786;SDS011;19139;49.372;8.580;2024-01-11T11:19:21;8.87;;;7.53;;
32786;SDS011;19139;49.372;8.580;2024-01-11T11:21:48;10.13;;;7.90;;
32786;SDS011;19139;49.372;8.580;2024-01-11T11:24:16;8.87;;;7.97;;
32786;SDS011;19139;49.372;8.580;2024-01-11T11:26:43;8.30;;;7.50;;
32786;SDS011;19139;49.372;8.580;2024-01-11T11:29:10;8.50;;;7.70;;
32786;SDS011;19139;49.372;8.580;2024-01-11T11:31:46;8.83;;;8.03;;
32786;SDS011;19139;49.372;8.580;2024-01-11T11:34:20;9.07;;;7.27;;
32786;SDS011;19139;49.372;8.580;2024-01-11T11:37:05;10.03;;;8.53;;
32786;SDS011;19139;49.372;8.580;2024-01-11T11:39:32;8.60;;;7.67;;
32786;SDS011;19139;49.372;8.580;2024-01-11T11:41:59;9.33;;;7.53;;
32786;SDS011;19139;49.372;8.580;2024-01-11T11:44:27;7.93;;;7.13;;
32786;SDS011;19139;49.372;8.580;2024-01-11T11:46:55;8.93;;;7.97;;
32786;SDS011;19139;49.372;8.580;2024-01-11T11:49:21;8.97;;;8.00;;
32786;SDS011;19139;49.372;8.580;2024-01-11T11:52:24;10.73;;;7.37;;
32786;SDS011;19139;49.372;8.580;2024-01-11T11:54:51;8.77;;;7.70;;
32786;SDS011;19139;49.372;8.580;2024-01-11T11:57:19;8.27;;;7.13;;
32786;SDS011;19139;49.372;8.580;2024-01-11T11:59:48;8.90;;;7.97;;
32786;SDS011;19139;49.372;8.580;2024-01-11T12:02:16;10.40;;;7.23;;
32786;SDS011;19139;49.372;8.580;2024-01-11T12:04:47;9.00;;;7.13;;
32786;SDS011;19139;49.372;8.580;2024-01-11T12:07:14;9.20;;;7.77;;
32786;SDS011;19139;49.372;8.580;2024-01-11T12:09:42;8.10;;;7.30;;
32786;SDS011;19139;49.372;8.580;2024-01-11T12:12:08;8.43;;;7.50;;
32786;SDS011;19139;49.372;8.580;2024-01-11T12:14:41;8.03;;;6.63;;
32786;SDS011;19139;49.372;8.580;2024-01-11T12:17:09;8.87;;;7.70;;
32786;SDS011;19139;49.372;8.580;2024-01-11T12:19:36;8.13;;;7.23;;
32786;SDS011;19139;49.372;8.580;2024-01-11T12:22:02;9.63;;;7.60;;
32786;SDS011;19139;49.372;8.580;2024-01-11T12:24:29;8.27;;;7.40;;
32786;SDS011;19139;49.372;8.580;2024-01-11T12:26:56;10.20;;;9.00;;
32786;SDS011;19139;49.372;8.580;2024-01-11T12:29:24;8.10;;;7.30;;
32786;SDS011;19139;49.372;8.580;2024-01-11T12:31:50;9.57;;;7.03;;
32786;SDS011;19139;49.372;8.580;2024-01-11T12:34:17;9.93;;;8.20;;
32786;SDS011;19139;49.372;8.580;2024-01-11T12:36:44;8.87;;;7.97;;
32786;SDS011;19139;49.372;8.580;2024-01-11T12:39:11;8.63;;;7.73;;
32786;SDS011;19139;49.372;8.580;2024-01-11T12:41:39;8.67;;;7.73;;
32786;SDS011;19139;49.372;8.580;2024-01-11T12:44:06;9.20;;;7.93;;
32786;SDS011;19139;49.372;8.580;2024-01-11T12:46:33;8.20;;;7.40;;
32786;SDS011;19139;49.372;8.580;2024-01-11T12:48:59;8.37;;;7.57;;
32786;SDS011;19139;49.372;8.580;2024-01-11T12:51:26;9.33;;;7.97;;
32786;SDS011;19139;49.372;8.580;2024-01-11T12:53:53;8.77;;;7.87;;
32786;SDS011;19139;49.372;8.580;2024-01-11T12:56:23;8.60;;;7.70;;
32786;SDS011;19139;49.372;8.580;2024-01-11T12:58:51;8.07;;;7.27;;
32786;SDS011;19139;49.372;8.580;2024-01-11T13:01:17;10.37;;;7.73;;
32786;SDS011;19139;49.372;8.580;2024-01-11T13:03:45;7.83;;;7.03;;
32786;SDS011;19139;49.372;8.580;2024-01-11T13:06:12;8.80;;;7.90;;
32786;SDS011;19139;49.372;8.580;2024-01-11T13:08:41;8.57;;;7.07;;
32786;SDS011;19139;49.372;8.580;2024-01-11T13:11:09;9.67;;;8.20;;
32786;SDS011;19139;49.372;8.580;2024-01-11T13:13:35;9.87;;;7.63;;
32786;SDS011;19139;49.372;8.580;2024-01-11T13:16:02;8.27;;;7.33;;
32786;SDS011;19139;49.372;8.580;2024-01-11T13:18:32;8.33;;;7.53;;
32786;SDS011;19139;49.372;8.580;2024-01-11T13:20:59;9.37;;;7.53;;
32786;SDS011;19139;49.372;8.580;2024-01-11T13:23:25;8.47;;;7.67;;
32786;SDS011;19139;49.372;8.580;2024-01-11T13:25:52;8.83;;;7.67;;
32786;SDS011;19139;49.372;8.580;2024-01-11T13:28:19;8.70;;;7.90;;
32786;SDS011;19139;49.372;8.580;2024-01-11T13:30:46;9.07;;;7.83;;
32786;SDS011;19139;49.372;8.580;2024-01-11T13:33:13;8.20;;;7.40;;
32786;SDS011;19139;49.372;8.580;2024-01-11T13:35:43;8.60;;;7.50;;
32786;SDS011;19139;49.372;8.580;2024-01-11T13:38:11;8.10;;;7.30;;
32786;SDS011;19139;49.372;8.580;2024-01-11T13:40:38;8.13;;;7.33;;
32786;SDS011;19139;49.372;8.580;2024-01-11T13:43:06;8.20;;;7.40;;
32786;SDS011;19139;49.372;8.580;2024-01-11T13:45:33;8.57;;;7.67;;
32786;SDS011;19139;49.372;8.580;2024-01-11T13:48:02;10.20;;;8.00;;
32786;SDS011;19139;49.372;8.580;2024-01-11T13:50:30;7.73;;;6.93;;
32786;SDS011;19139;49.372;8.580;2024-01-11T13:52:59;8.53;;;7.63;;
32786;SDS011;19139;49.372;8.580;2024-01-11T13:55:27;8.47;;;7.57;;
32786;SDS011;19139;49.372;8.580;2024-01-11T13:57:55;9.33;;;7.80;;
32786;SDS011;19139;49.372;8.580;2024-01-11T14:00:22;7.90;;;7.13;;
32786;SDS011;19139;49.372;8.580;2024-01-11T14:02:49;8.57;;;7.47;;
32786;SDS011;19139;49.372;8.580;2024-01-11T14:05:16;9.47;;;7.97;;
32786;SDS011;19139;49.372;8.580;2024-01-11T14:07:44;9.17;;;7.50;;
32786;SDS011;19139;49.372;8.580;2024-01-11T14:10:12;8.57;;;7.63;;
32786;SDS011;19139;49.372;8.580;2024-01-11T14:12:40;8.77;;;7.87;;
32786;SDS011;19139;49.372;8.580;2024-01-11T14:15:07;8.80;;;7.70;;
32786;SDS011;19139;49.372;8.580;2024-01-11T14:17:39;9.40;;;8.37;;
32786;SDS011;19139;49.372;8.580;2024-01-11T14:20:07;8.30;;;7.40;;
32786;SDS011;19139;49.372;8.580;2024-01-11T14:22:41;8.20;;;7.40;;
32786;SDS011;19139;49.372;8.580;2024-01-11T14:25:13;8.33;;;7.17;;
32786;SDS011;19139;49.372;8.580;2024-01-11T14:27:39;9.13;;;7.97;;
32786;SDS011;19139;49.372;8.580;2024-01-11T14:30:07;10.53;;;7.93;;
32786;SDS011;19139;49.372;8.580;2024-01-11T14:32:36;14.50;;;11.80;;
32786;SDS011;19139;49.372;8.580;2024-01-11T14:35:07;29.27;;;24.93;;
32786;SDS011;19139;49.372;8.580;2024-01-11T14:37:35;33.40;;;27.60;;
32786;SDS011;19139;49.372;8.580;2024-01-11T14:40:03;27.90;;;22.53;;
32786;SDS011;19139;49.372;8.580;2024-01-11T14:42:32;26.07;;;20.93;;
32786;SDS011;19139;49.372;8.580;2024-01-11T14:44:59;25.93;;;19.80;;
32786;SDS011;19139;49.372;8.580;2024-01-11T14:47:26;26.23;;;19.30;;
32786;SDS011;19139;49.372;8.580;2024-01-11T14:49:53;22.43;;;18.63;;